createdAt,value
2023-03-17T10:58:17.285Z,-3.73
2023-03-17T11:03:23.516Z,-3.79
2023-03-17T11:08:31.572Z,-3.40
2023-03-17T11:13:36.750Z,-3.19
2023-03-17T11:18:41.858Z,-3.15
2023-03-17T11:23:53.888Z,-2.94
2023-03-17T11:29:09.904Z,-3.09
2023-03-17T11:34:19.872Z,-3.10
2023-03-17T11:39:26.497Z,-3.07
2023-03-17T11:44:53.631Z,-2.95
2023-03-17T11:50:01.465Z,-3.00
2023-03-17T11:55:11.156Z,-2.87
2023-03-17T12:00:19.789Z,-2.59
2023-03-17T12:05:25.040Z,-2.65
2023-03-17T12:16:06.720Z,-2.49
2023-03-17T12:21:16.769Z,-2.22
2023-03-17T12:26:25.232Z,-2.48
2023-03-17T12:31:32.722Z,-2.42
2023-03-17T12:36:36.693Z,-2.53
2023-03-17T12:41:56.792Z,-2.66
2023-03-17T12:47:14.965Z,-2.54
2023-03-17T12:52:25.973Z,-2.42
2023-03-17T12:57:31.007Z,-2.54
2023-03-17T13:02:38.300Z,-2.42
2023-03-17T13:07:47.999Z,-2.38
2023-03-17T13:13:00.325Z,-2.19
2023-03-17T13:18:24.479Z,-2.28
2023-03-17T13:23:36.515Z,-2.18
2023-03-17T13:28:44.657Z,-2.05
2023-03-17T13:33:53.377Z,-2.14
2023-03-17T13:39:19.342Z,-1.96
2023-03-17T13:44:30.869Z,-1.91
2023-03-17T13:49:36.599Z,-1.72
2023-03-17T13:54:47.889Z,-1.90
2023-03-17T13:59:56.434Z,-1.57
2023-03-17T14:05:01.545Z,-1.59
2023-03-17T14:10:16.805Z,-1.77
2023-03-17T14:15:26.031Z,-1.82
2023-03-17T14:20:29.599Z,-1.81
2023-03-17T14:25:37.597Z,-1.68
2023-03-17T14:30:42.852Z,-1.69
2023-03-17T14:35:46.158Z,-1.64
2023-03-17T14:40:52.279Z,-1.47
2023-03-17T14:46:01.491Z,-1.90
2023-03-17T14:51:07.420Z,-1.67
2023-03-17T14:56:12.126Z,-1.92
2023-03-17T15:01:17.314Z,-2.22
2023-03-17T15:06:23.481Z,-2.26
2023-03-17T15:11:29.070Z,-2.29
2023-03-17T15:16:34.961Z,-2.36
2023-03-17T15:21:40.505Z,-2.30
2023-03-17T15:26:47.472Z,-2.37
2023-03-17T15:31:51.095Z,-2.40
2023-03-17T15:36:55.546Z,-2.46
2023-03-17T15:42:00.308Z,-2.60
2023-03-17T15:47:04.035Z,-2.85
2023-03-17T15:52:11.032Z,-3.12
2023-03-17T15:57:15.988Z,-3.10
2023-03-17T16:02:24.651Z,-3.03
2023-03-17T16:07:30.808Z,-3.20
2023-03-17T16:12:35.455Z,-3.20
2023-03-17T16:17:38.731Z,-3.32
2023-03-17T16:22:43.472Z,-3.40
2023-03-17T16:27:48.315Z,-3.40
2023-03-17T16:32:52.129Z,-3.37
2023-03-17T16:37:55.676Z,-3.45
2023-03-17T16:43:00.329Z,-3.60
2023-03-17T16:48:04.791Z,-3.74
2023-03-17T16:53:08.128Z,-3.88
2023-03-17T16:58:17.944Z,-3.94
2023-03-17T17:03:21.269Z,-4.00
2023-03-17T17:08:24.792Z,-4.15
2023-03-17T17:13:29.582Z,-4.22
2023-03-17T17:18:32.861Z,-4.31
2023-03-17T17:23:36.282Z,-4.39
2023-03-17T17:28:40.988Z,-4.42
2023-03-17T17:33:46.582Z,-4.49
2023-03-17T17:38:51.707Z,-4.54
2023-03-17T17:43:58.589Z,-4.59
2023-03-17T17:49:05.916Z,-4.58
2023-03-17T17:54:10.352Z,-4.60
2023-03-17T17:59:15.324Z,-4.57
2023-03-17T18:04:18.652Z,-4.70
2023-03-17T18:09:22.338Z,-4.66
2023-03-17T18:14:27.660Z,-4.62
2023-03-17T18:19:30.955Z,-4.73
2023-03-17T18:24:36.043Z,-4.80
2023-03-17T18:29:40.700Z,-4.76
2023-03-17T18:34:47.247Z,-4.73
2023-03-17T18:40:11.601Z,-4.75
2023-03-17T18:45:16.042Z,-4.73
2023-03-17T18:50:21.855Z,-4.93
2023-03-17T18:55:25.491Z,-4.87
2023-03-17T19:00:30.557Z,-4.95
2023-03-17T19:05:37.529Z,-5.01
2023-03-17T19:10:43.328Z,-5.20
2023-03-17T19:15:47.987Z,-5.28
2023-03-17T19:20:51.268Z,-5.43
2023-03-17T19:25:54.564Z,-5.36
2023-03-17T19:30:59.543Z,-5.51
2023-03-17T19:36:07.114Z,-5.52
2023-03-17T19:41:10.412Z,-5.54
2023-03-17T19:46:15.088Z,-5.67
2023-03-17T19:51:18.649Z,-5.62
2023-03-17T19:56:23.013Z,-5.76
2023-03-17T20:01:29.016Z,-5.84
2023-03-17T20:06:34.886Z,-5.86
2023-03-17T20:11:40.761Z,-5.81
2023-03-17T20:16:47.405Z,-5.76
2023-03-17T20:21:51.003Z,-5.85
2023-03-17T20:26:57.226Z,-5.83
2023-03-17T20:32:02.174Z,-5.83
2023-03-17T20:37:06.026Z,-6.00
2023-03-17T20:42:14.609Z,-5.98
2023-03-17T20:47:22.225Z,-5.93
2023-03-17T20:52:26.494Z,-5.97
2023-03-17T20:57:30.675Z,-5.97
2023-03-17T21:02:35.611Z,-6.04
2023-03-17T21:07:39.413Z,-6.09
2023-03-17T21:12:42.840Z,-6.18
2023-03-17T21:17:47.615Z,-6.26
2023-03-17T21:22:51.541Z,-6.32
2023-03-17T21:27:54.926Z,-6.37
2023-03-17T21:33:00.181Z,-6.39
2023-03-17T21:38:03.840Z,-6.41
2023-03-17T21:43:07.206Z,-6.47
2023-03-17T21:48:11.961Z,-6.54
2023-03-17T21:53:15.806Z,-6.53
2023-03-17T21:58:20.556Z,-6.52
2023-03-17T22:03:25.789Z,-6.65
2023-03-17T22:08:29.506Z,-6.69
2023-03-17T22:13:32.781Z,-6.71
2023-03-17T22:18:37.868Z,-6.69
2023-03-17T22:23:42.560Z,-6.72
2023-03-17T22:28:46.731Z,-6.71
2023-03-17T22:33:52.291Z,-6.77
2023-03-17T22:39:00.744Z,-6.75
2023-03-17T22:44:04.313Z,-6.78
